Blanks, Louisiana
Current Conditions -  °F | °C
As of 7:35 PM on Monday 22 Dec 2014 (Local Time) from KHZR Reporting Station
Broken Clouds Broken Clouds  
Wind Chill: 67°   Ceiling: 3700
Heat Index: 67°   Visibility: 10mi
Dew Point: 62°   Wind: 6mph
Humidity: 84%   Direction: 170°S
Pressure: 29.69"   Gusts: NA
Location:  30.55°N, 91.6°W
Report Text: KHZR 230135Z AUTO 17005KT 10SM SCT029 BKN037 20/17 A2969 RMK AO2 T01960168
Loading
Personal Weather Stations






























Interactive Weather Map New forecast layout! Learn more

10-Day Weather Forecast

Advertisements
Track Severe Weather on mobile